createdAt,value
2022-10-04T00:02:38.288Z,90.11
2022-10-04T00:05:26.101Z,89.84
2022-10-04T00:07:56.957Z,89.74
2022-10-04T00:10:34.748Z,89.84
2022-10-04T00:13:17.827Z,89.92
2022-10-04T00:16:32.614Z,89.84
2022-10-04T00:19:36.854Z,90.00
2022-10-04T00:23:07.758Z,89.65
2022-10-04T00:25:37.202Z,90.07
2022-10-04T00:28:49.744Z,89.84
2022-10-04T00:35:10.777Z,90.12
2022-10-04T00:41:43.481Z,90.29
2022-10-04T00:44:28.917Z,90.08
2022-10-04T00:53:27.828Z,90.57
2022-10-04T00:56:09.804Z,90.57
2022-10-04T00:59:09.700Z,90.52
2022-10-04T01:02:27.123Z,90.96
2022-10-04T01:14:58.547Z,91.05
2022-10-04T01:17:44.419Z,90.76
2022-10-04T01:20:46.285Z,91.18
2022-10-04T01:23:34.509Z,91.37
2022-10-04T01:26:05.798Z,91.29
2022-10-04T01:28:37.517Z,91.03
2022-10-04T01:31:10.280Z,91.24
2022-10-04T01:33:51.761Z,90.93
2022-10-04T01:36:24.584Z,91.15
2022-10-04T01:39:04.417Z,91.41
2022-10-04T01:41:50.815Z,91.05
2022-10-04T01:44:25.799Z,91.11
2022-10-04T01:47:00.698Z,91.34
2022-10-04T01:49:44.320Z,91.27
2022-10-04T01:52:31.000Z,91.25
2022-10-04T01:55:23.842Z,91.16
2022-10-04T01:57:57.965Z,91.03
2022-10-04T02:00:32.081Z,90.89
2022-10-04T02:03:04.857Z,90.89
2022-10-04T02:05:40.857Z,91.19
2022-10-04T02:08:13.898Z,91.14
2022-10-04T02:10:53.749Z,90.77
2022-10-04T02:13:25.502Z,91.29
2022-10-04T02:16:06.515Z,90.77
2022-10-04T02:18:49.003Z,91.36
2022-10-04T02:21:26.037Z,91.25
2022-10-04T02:24:09.240Z,91.31
2022-10-04T02:29:25.058Z,91.03
2022-10-04T02:32:14.843Z,90.87
2022-10-04T02:34:51.578Z,90.92
2022-10-04T02:37:29.976Z,91.19
2022-10-04T02:40:47.848Z,91.28
2022-10-04T02:43:32.495Z,91.64
2022-10-04T02:46:07.785Z,91.35
2022-10-04T02:48:44.644Z,91.42
2022-10-04T02:51:25.228Z,91.26
2022-10-04T02:54:05.574Z,91.36
2022-10-04T02:56:39.914Z,91.34
2022-10-04T02:59:20.876Z,91.35
2022-10-04T03:02:03.078Z,91.29
2022-10-04T03:04:42.046Z,91.23
2022-10-04T03:07:32.500Z,91.53
2022-10-04T03:10:10.122Z,91.38
2022-10-04T03:12:46.765Z,91.22
2022-10-04T03:15:34.706Z,91.34
2022-10-04T03:18:07.758Z,91.70
2022-10-04T03:20:42.208Z,91.59
2022-10-04T03:23:13.422Z,91.34
2022-10-04T03:25:50.075Z,91.66
2022-10-04T03:28:19.297Z,91.73
2022-10-04T03:30:48.541Z,91.69
2022-10-04T03:33:30.683Z,91.60
2022-10-04T03:36:00.866Z,91.34
2022-10-04T03:38:29.201Z,91.73
2022-10-04T03:41:01.529Z,91.73
2022-10-04T03:43:53.780Z,91.57
2022-10-04T03:46:25.156Z,91.73
2022-10-04T03:48:55.798Z,91.32
2022-10-04T03:51:28.652Z,91.99
2022-10-04T03:54:02.956Z,91.74
2022-10-04T03:56:38.393Z,91.89
2022-10-04T03:59:18.171Z,91.52
2022-10-04T04:02:03.849Z,92.04
2022-10-04T04:04:51.104Z,91.79
2022-10-04T04:07:37.711Z,92.13
2022-10-04T04:10:16.803Z,92.10
2022-10-04T04:12:53.611Z,92.42
2022-10-04T04:15:22.473Z,92.65
2022-10-04T04:17:59.851Z,92.56
2022-10-04T04:20:32.713Z,92.25
2022-10-04T04:23:13.714Z,92.95
2022-10-04T04:25:44.562Z,93.24
2022-10-04T04:28:24.733Z,93.01
2022-10-04T04:30:56.275Z,93.37
2022-10-04T04:33:26.893Z,94.01
2022-10-04T04:35:56.053Z,93.20
2022-10-04T04:38:25.622Z,92.92
2022-10-04T04:41:11.971Z,92.99
2022-10-04T04:43:51.194Z,93.32
2022-10-04T04:46:28.134Z,93.17
2022-10-04T04:48:59.970Z,93.32
2022-10-04T04:51:50.393Z,93.43
2022-10-04T04:54:24.076Z,93.44
2022-10-04T04:56:56.002Z,93.98
2022-10-04T04:59:25.885Z,93.86
2022-10-04T05:02:29.974Z,94.12
2022-10-04T05:05:28.937Z,93.80
2022-10-04T05:08:26.522Z,93.94
2022-10-04T05:11:04.187Z,94.07
2022-10-04T05:13:37.153Z,94.29
2022-10-04T05:16:12.554Z,94.05
2022-10-04T05:18:47.351Z,94.20
2022-10-04T05:21:26.980Z,93.91
2022-10-04T05:24:09.431Z,94.31
2022-10-04T05:26:41.772Z,93.92
2022-10-04T05:29:21.868Z,94.08
2022-10-04T05:32:08.664Z,94.09
2022-10-04T05:34:48.938Z,94.59
2022-10-04T05:38:06.455Z,94.39
2022-10-04T05:40:48.851Z,94.65
2022-10-04T05:43:37.606Z,94.22
2022-10-04T05:46:31.545Z,94.18
2022-10-04T05:49:19.086Z,94.69
2022-10-04T05:51:54.686Z,94.50
2022-10-04T05:54:30.071Z,94.32
2022-10-04T05:58:05.141Z,94.41
2022-10-04T06:04:31.663Z,94.58
2022-10-04T06:07:45.268Z,94.95
2022-10-04T06:14:17.256Z,94.86
2022-10-04T06:26:44.121Z,96.01
2022-10-04T06:32:55.796Z,95.42
2022-10-04T06:36:02.537Z,95.64
2022-10-04T06:39:08.821Z,95.53
2022-10-04T06:42:30.317Z,95.21
2022-10-04T06:45:37.943Z,96.11
2022-10-04T06:52:07.361Z,95.84
2022-10-04T06:55:00.948Z,95.92
2022-10-04T06:58:10.252Z,96.21
2022-10-04T07:01:05.689Z,95.92
2022-10-04T07:04:27.926Z,96.18
2022-10-04T07:07:38.107Z,96.39
2022-10-04T07:10:48.303Z,96.09
2022-10-04T07:13:46.866Z,95.81
2022-10-04T07:16:38.442Z,96.67
2022-10-04T07:19:42.576Z,96.63
2022-10-04T07:22:42.299Z,96.49
2022-10-04T07:25:54.382Z,96.23
2022-10-04T07:28:40.805Z,96.55
2022-10-04T07:31:42.966Z,96.17
2022-10-04T07:34:39.131Z,95.79
2022-10-04T07:40:32.031Z,95.40
2022-10-04T07:43:33.514Z,95.77
2022-10-04T07:46:43.455Z,95.36
2022-10-04T07:52:50.684Z,95.24
2022-10-04T07:55:53.760Z,95.35
2022-10-04T07:59:15.627Z,94.71
2022-10-04T08:02:40.906Z,94.97
2022-10-04T08:06:27.567Z,95.12
2022-10-04T08:15:53.971Z,95.38
2022-10-04T08:21:58.674Z,95.02
2022-10-04T08:25:17.872Z,95.36
2022-10-04T08:28:12.689Z,94.96
2022-10-04T08:31:28.683Z,95.04
2022-10-04T08:34:35.197Z,94.99
2022-10-04T08:37:23.927Z,95.08
2022-10-04T08:40:30.640Z,95.02
2022-10-04T08:43:43.764Z,94.59
2022-10-04T08:46:58.641Z,94.05
2022-10-04T08:50:11.661Z,93.84
2022-10-04T08:53:10.822Z,93.96
2022-10-04T08:56:12.720Z,93.80
2022-10-04T08:59:21.778Z,93.27
2022-10-04T09:02:36.861Z,92.85
2022-10-04T09:05:34.718Z,92.23
2022-10-04T09:08:37.661Z,90.63
2022-10-04T09:11:42.594Z,91.11
2022-10-04T09:14:38.015Z,90.80
2022-10-04T09:17:22.814Z,90.44
2022-10-04T09:20:19.581Z,90.55
2022-10-04T09:23:06.354Z,89.95
2022-10-04T09:26:18.515Z,89.85
2022-10-04T09:29:28.752Z,89.86
2022-10-04T09:32:33.631Z,89.69
2022-10-04T09:35:33.034Z,89.10
2022-10-04T09:38:40.820Z,88.94
2022-10-04T09:41:54.297Z,89.57
2022-10-04T09:45:10.896Z,88.75
2022-10-04T09:48:23.553Z,88.40
2022-10-04T09:51:36.311Z,87.16
2022-10-04T09:54:51.968Z,88.03
2022-10-04T09:57:49.803Z,87.21
2022-10-04T10:00:29.891Z,86.40
2022-10-04T10:13:33.359Z,85.00
2022-10-04T10:16:41.571Z,84.67
2022-10-04T10:19:36.158Z,85.18
2022-10-04T10:22:43.876Z,84.50
2022-10-04T10:32:24.583Z,81.23
2022-10-04T10:35:55.652Z,80.14
2022-10-04T10:39:15.731Z,79.64
2022-10-04T10:42:20.959Z,79.89
2022-10-04T10:45:31.189Z,79.85
2022-10-04T10:48:19.858Z,79.69
2022-10-04T10:51:18.990Z,78.97
2022-10-04T10:54:30.004Z,77.62
2022-10-04T10:57:12.111Z,77.41
2022-10-04T11:00:35.172Z,74.74
2022-10-04T11:03:59.347Z,73.96
2022-10-04T11:07:13.396Z,74.60
2022-10-04T11:10:31.204Z,76.07
2022-10-04T11:13:56.084Z,76.18
2022-10-04T11:17:04.013Z,76.16
2022-10-04T11:20:06.741Z,74.07
2022-10-04T11:23:17.978Z,73.06
2022-10-04T11:26:30.871Z,72.52
2022-10-04T11:29:15.487Z,73.63
2022-10-04T11:32:15.345Z,73.03
2022-10-04T11:35:20.334Z,71.56
2022-10-04T11:38:06.605Z,71.09
2022-10-04T11:40:48.677Z,72.95
2022-10-04T11:43:29.577Z,71.63
2022-10-04T11:46:11.864Z,72.13
2022-10-04T11:48:52.144Z,71.74
2022-10-04T11:52:09.675Z,69.50
2022-10-04T11:55:20.613Z,70.38
2022-10-04T11:57:51.125Z,71.34
2022-10-04T12:00:20.108Z,70.53
2022-10-04T12:03:00.950Z,68.83
2022-10-04T12:05:42.346Z,68.39
2022-10-04T12:08:26.166Z,68.85
2022-10-04T12:11:32.939Z,68.38
2022-10-04T12:14:10.605Z,68.75
2022-10-04T12:17:01.074Z,68.05
2022-10-04T12:19:53.961Z,66.30
2022-10-04T12:22:45.365Z,67.94
2022-10-04T12:25:42.619Z,67.18
2022-10-04T12:28:29.954Z,66.63
2022-10-04T12:31:10.907Z,64.96
2022-10-04T12:33:46.789Z,65.26
2022-10-04T12:36:43.009Z,65.08
2022-10-04T12:39:39.180Z,65.42
2022-10-04T12:42:37.823Z,65.89
2022-10-04T12:48:59.528Z,64.82
2022-10-04T12:52:04.529Z,64.29
2022-10-04T12:54:46.932Z,62.72
2022-10-04T12:57:51.120Z,64.50
2022-10-04T13:00:42.795Z,63.53
2022-10-04T13:03:48.409Z,64.13
2022-10-04T13:06:45.068Z,61.81
2022-10-04T13:10:12.085Z,60.09
2022-10-04T13:13:12.022Z,60.88
2022-10-04T13:19:11.255Z,60.10
2022-10-04T13:22:56.421Z,59.89
2022-10-04T13:25:53.141Z,61.00
2022-10-04T13:28:34.195Z,60.14
2022-10-04T13:31:13.635Z,57.93
2022-10-04T13:34:18.113Z,53.95
2022-10-04T13:37:27.350Z,56.92
2022-10-04T13:40:22.811Z,53.23
2022-10-04T13:43:44.496Z,51.95
2022-10-04T13:46:41.505Z,52.00
2022-10-04T13:49:29.277Z,52.33
2022-10-04T13:52:42.114Z,53.15
2022-10-04T13:59:33.800Z,51.02
2022-10-04T14:02:52.191Z,52.51
2022-10-04T14:09:33.551Z,50.01
2022-10-04T14:12:43.197Z,52.32
2022-10-04T14:15:49.209Z,51.71
2022-10-04T14:18:59.997Z,50.92
2022-10-04T14:22:18.109Z,51.07
2022-10-04T14:28:52.492Z,48.19
2022-10-04T14:35:28.674Z,48.77
2022-10-04T14:42:09.068Z,47.68
2022-10-04T14:45:27.946Z,49.59
2022-10-04T14:55:25.919Z,48.57
2022-10-04T14:58:23.975Z,50.50
2022-10-04T15:07:54.223Z,52.70
2022-10-04T15:29:29.539Z,56.95
2022-10-04T15:32:46.445Z,56.99
2022-10-04T15:35:36.059Z,57.15
2022-10-04T15:38:39.376Z,56.77
2022-10-04T15:41:36.517Z,57.01
2022-10-04T15:44:45.019Z,57.63
2022-10-04T15:47:32.062Z,58.26
2022-10-04T15:50:22.862Z,58.24
2022-10-04T15:53:19.990Z,58.85
2022-10-04T15:56:12.520Z,59.78
2022-10-04T15:58:53.315Z,60.42
2022-10-04T16:01:44.824Z,60.17
2022-10-04T16:04:37.164Z,60.65
2022-10-04T16:07:34.390Z,60.73
2022-10-04T16:10:14.785Z,60.83
2022-10-04T16:13:05.422Z,61.64
2022-10-04T16:15:34.840Z,61.53
2022-10-04T16:18:25.420Z,62.08
2022-10-04T16:21:10.220Z,61.95
2022-10-04T16:23:39.962Z,62.31
2022-10-04T16:26:16.684Z,62.33
2022-10-04T16:33:07.263Z,64.14
2022-10-04T16:36:17.288Z,63.22
2022-10-04T16:42:17.884Z,64.30
2022-10-04T16:45:19.725Z,64.38
2022-10-04T16:48:02.948Z,64.65
2022-10-04T16:51:13.318Z,65.35
2022-10-04T16:53:55.388Z,65.15
2022-10-04T16:56:28.710Z,65.01
2022-10-04T16:59:38.796Z,65.75
2022-10-04T17:02:29.028Z,66.39
2022-10-04T17:05:19.831Z,66.31
2022-10-04T17:08:37.844Z,67.25
2022-10-04T17:12:27.979Z,66.71
2022-10-04T17:15:24.196Z,66.66
2022-10-04T17:18:38.565Z,67.60
2022-10-04T17:21:41.837Z,67.04
2022-10-04T17:24:45.252Z,68.17
2022-10-04T17:27:58.638Z,68.33
2022-10-04T17:30:49.361Z,68.03
2022-10-04T17:34:00.935Z,68.27
2022-10-04T17:36:57.312Z,68.30
2022-10-04T17:39:54.285Z,68.74
2022-10-04T17:46:01.147Z,69.45
2022-10-04T17:49:07.255Z,69.16
2022-10-04T17:51:56.816Z,69.79
2022-10-04T17:54:44.563Z,70.31
2022-10-04T18:03:24.188Z,70.33
2022-10-04T18:05:57.202Z,70.73
2022-10-04T18:08:44.525Z,71.01
2022-10-04T18:11:27.796Z,70.88
2022-10-04T18:14:06.626Z,71.41
2022-10-04T18:16:53.184Z,71.53
2022-10-04T18:19:45.471Z,72.04
2022-10-04T18:22:38.724Z,72.05
2022-10-04T18:25:18.364Z,72.29
2022-10-04T18:28:15.649Z,72.28
2022-10-04T18:33:56.415Z,73.26
2022-10-04T18:36:28.950Z,73.14
2022-10-04T18:39:03.430Z,73.21
2022-10-04T18:44:53.486Z,73.39
2022-10-04T18:47:38.479Z,74.77
2022-10-04T18:50:31.238Z,73.48
2022-10-04T18:53:31.421Z,73.95
2022-10-04T18:56:33.081Z,74.26
2022-10-04T18:59:20.132Z,74.30
2022-10-04T19:02:31.395Z,74.44
2022-10-04T19:05:08.864Z,74.82
2022-10-04T19:07:55.619Z,74.88
2022-10-04T19:10:41.113Z,74.75
2022-10-04T19:16:57.383Z,75.28
2022-10-04T19:19:50.681Z,75.62
2022-10-04T19:22:35.094Z,75.72
2022-10-04T19:25:28.699Z,76.01
2022-10-04T19:28:03.720Z,75.74
2022-10-04T19:30:49.157Z,75.80
2022-10-04T19:33:27.146Z,76.21
2022-10-04T19:36:09.017Z,75.94
2022-10-04T19:39:12.540Z,75.99
2022-10-04T19:41:55.929Z,76.01
2022-10-04T19:44:42.346Z,76.83
2022-10-04T19:47:26.706Z,76.25
2022-10-04T19:50:06.240Z,76.24
2022-10-04T19:52:51.612Z,77.08
2022-10-04T19:55:24.502Z,76.72
2022-10-04T19:58:03.741Z,76.97
2022-10-04T20:00:34.690Z,76.80
2022-10-04T20:09:51.287Z,77.94
2022-10-04T20:13:12.012Z,78.41
2022-10-04T20:16:16.052Z,77.85
2022-10-04T20:19:15.063Z,78.11
2022-10-04T20:24:57.809Z,77.88
2022-10-04T20:28:04.948Z,77.93
2022-10-04T20:30:53.685Z,78.45
2022-10-04T20:33:49.108Z,78.28
2022-10-04T20:36:51.630Z,78.32
2022-10-04T20:40:01.144Z,78.93
2022-10-04T20:42:40.713Z,78.43
2022-10-04T20:45:27.898Z,78.31
2022-10-04T20:47:55.882Z,78.75
2022-10-04T20:50:39.836Z,78.75
2022-10-04T20:53:24.178Z,78.99
2022-10-04T20:56:08.280Z,79.13
2022-10-04T20:58:35.666Z,79.25
2022-10-04T21:01:07.464Z,78.99
2022-10-04T21:03:35.861Z,79.26
2022-10-04T21:06:05.805Z,79.21
2022-10-04T21:08:36.535Z,79.76
2022-10-04T21:11:23.282Z,79.94
2022-10-04T21:14:21.851Z,79.83
2022-10-04T21:16:50.486Z,79.80
2022-10-04T21:19:43.778Z,79.84
2022-10-04T21:22:28.927Z,80.09
2022-10-04T21:25:01.224Z,80.01
2022-10-04T21:27:30.207Z,80.07
2022-10-04T21:30:00.707Z,80.16
2022-10-04T21:32:33.755Z,80.31
2022-10-04T21:35:00.825Z,80.76
2022-10-04T21:37:29.578Z,80.70
2022-10-04T21:40:01.070Z,80.75
2022-10-04T21:42:29.057Z,82.33
2022-10-04T21:44:56.295Z,80.86
2022-10-04T21:47:23.084Z,81.17
2022-10-04T21:49:50.169Z,81.46
2022-10-04T21:52:19.558Z,81.30
2022-10-04T21:54:46.724Z,81.66
2022-10-04T21:57:16.107Z,81.65
2022-10-04T21:59:46.305Z,81.58
2022-10-04T22:02:13.542Z,81.84
2022-10-04T22:04:40.609Z,81.76
2022-10-04T22:07:09.645Z,81.65
2022-10-04T22:09:40.848Z,81.67
2022-10-04T22:12:07.803Z,81.91
2022-10-04T22:14:38.226Z,81.87
2022-10-04T22:17:05.073Z,82.02
2022-10-04T22:19:31.837Z,82.01
2022-10-04T22:21:58.655Z,82.40
2022-10-04T22:24:26.534Z,82.25
2022-10-04T22:26:56.635Z,82.21
2022-10-04T22:29:23.882Z,82.29
2022-10-04T22:32:11.107Z,82.39
2022-10-04T22:34:38.065Z,82.82
2022-10-04T22:37:10.043Z,82.43
2022-10-04T22:39:36.880Z,82.65
2022-10-04T22:42:04.035Z,82.57
2022-10-04T22:44:38.247Z,82.46
2022-10-04T22:47:11.936Z,82.41
2022-10-04T22:49:42.926Z,83.05
2022-10-04T22:52:18.215Z,82.80
2022-10-04T22:54:49.976Z,82.61
2022-10-04T22:57:21.101Z,83.09
2022-10-04T22:59:54.602Z,83.30
2022-10-04T23:02:25.387Z,83.35
2022-10-04T23:04:54.214Z,83.47
2022-10-04T23:07:23.460Z,83.38
2022-10-04T23:09:51.838Z,83.59
2022-10-04T23:12:25.970Z,83.24
2022-10-04T23:14:53.054Z,83.48
2022-10-04T23:17:29.419Z,83.61
2022-10-04T23:20:03.560Z,83.49
2022-10-04T23:22:30.785Z,83.66
2022-10-04T23:25:00.917Z,83.89
2022-10-04T23:27:32.168Z,83.75
2022-10-04T23:30:03.048Z,83.89
2022-10-04T23:32:32.958Z,84.18
2022-10-04T23:35:03.668Z,84.09
2022-10-04T23:37:32.333Z,83.84
2022-10-04T23:40:06.752Z,83.75
2022-10-04T23:42:34.152Z,83.85
2022-10-04T23:45:02.032Z,83.76
2022-10-04T23:47:34.646Z,83.71
2022-10-04T23:50:02.438Z,83.79
2022-10-04T23:52:36.508Z,83.53
2022-10-04T23:55:14.097Z,83.36
2022-10-04T23:57:43.351Z,83.73
